createdAt,value
2018-10-06T00:00:26.621Z,0.00
2018-10-06T00:01:26.595Z,0.00
2018-10-06T00:02:26.590Z,0.00
2018-10-06T00:03:26.565Z,0.00
2018-10-06T00:04:26.550Z,0.00
2018-10-06T00:05:26.531Z,0.00
2018-10-06T00:06:26.523Z,0.00
2018-10-06T00:07:26.503Z,0.00
2018-10-06T00:08:26.499Z,0.00
2018-10-06T00:09:26.477Z,0.00
2018-10-06T00:10:26.476Z,0.00
2018-10-06T00:11:26.444Z,0.00
2018-10-06T00:12:26.427Z,0.00
2018-10-06T00:13:26.412Z,0.00
2018-10-06T00:14:26.397Z,0.00
2018-10-06T00:15:26.382Z,0.00
2018-10-06T00:16:26.365Z,0.00
2018-10-06T00:17:26.351Z,0.00
2018-10-06T00:18:26.338Z,0.00
2018-10-06T00:19:26.322Z,0.00
2018-10-06T00:20:26.307Z,0.00
2018-10-06T00:21:26.289Z,0.00
2018-10-06T00:22:26.276Z,0.00
2018-10-06T00:23:26.260Z,0.00
2018-10-06T00:24:26.246Z,0.00
2018-10-06T00:25:26.229Z,0.00
2018-10-06T00:26:26.218Z,0.00
2018-10-06T00:27:26.198Z,0.00
2018-10-06T00:28:26.182Z,0.00
2018-10-06T00:29:26.167Z,0.00
2018-10-06T00:30:26.152Z,0.00
2018-10-06T00:31:26.149Z,0.00
2018-10-06T00:32:26.123Z,0.00
2018-10-06T00:33:26.107Z,0.00
2018-10-06T00:34:26.097Z,0.00
2018-10-06T00:35:26.088Z,0.00
2018-10-06T00:36:26.061Z,0.00
2018-10-06T00:37:26.048Z,0.00
2018-10-06T00:38:26.031Z,0.00
2018-10-06T00:39:26.017Z,0.00
2018-10-06T00:40:26.000Z,0.00
2018-10-06T00:41:25.987Z,0.00
2018-10-06T00:42:25.969Z,0.00
2018-10-06T00:43:25.963Z,0.00
2018-10-06T00:44:25.939Z,0.00
2018-10-06T00:45:25.922Z,0.00
2018-10-06T00:46:26.123Z,0.00
2018-10-06T00:47:25.902Z,0.00
2018-10-06T00:48:25.876Z,0.00
2018-10-06T00:49:25.863Z,0.00
2018-10-06T00:50:25.847Z,0.00
2018-10-06T00:51:25.830Z,0.00
2018-10-06T00:52:25.816Z,0.00
2018-10-06T00:53:25.801Z,0.00
2018-10-06T00:54:25.794Z,0.00
2018-10-06T00:55:25.771Z,0.00
2018-10-06T00:56:25.754Z,0.00
2018-10-06T00:57:25.742Z,0.00
2018-10-06T00:58:25.721Z,0.00
2018-10-06T00:59:25.722Z,0.00
2018-10-06T01:00:25.694Z,0.00
2018-10-06T01:01:25.676Z,0.00
2018-10-06T01:02:25.663Z,0.00
2018-10-06T01:03:25.647Z,0.00
2018-10-06T01:04:25.628Z,0.00
2018-10-06T01:05:25.614Z,0.00
2018-10-06T01:06:25.599Z,0.00
2018-10-06T01:07:25.586Z,0.00
2018-10-06T01:08:25.567Z,0.00
2018-10-06T01:09:25.551Z,0.00
2018-10-06T01:10:25.538Z,0.00
2018-10-06T01:11:25.542Z,0.00
2018-10-06T01:12:25.505Z,0.00
2018-10-06T01:13:25.491Z,0.00
2018-10-06T01:14:25.488Z,0.00
2018-10-06T01:15:25.462Z,0.00
2018-10-06T01:16:25.444Z,0.00
2018-10-06T01:17:25.424Z,0.00
2018-10-06T01:18:25.409Z,0.00
2018-10-06T01:19:25.393Z,0.00
2018-10-06T01:20:25.378Z,0.00
2018-10-06T01:21:25.363Z,0.00
2018-10-06T01:22:25.349Z,0.00
2018-10-06T01:23:25.332Z,0.00
2018-10-06T01:24:25.530Z,0.00
2018-10-06T01:25:25.299Z,0.00
2018-10-06T01:26:25.289Z,0.00
2018-10-06T01:27:25.269Z,0.00
2018-10-06T01:28:25.252Z,0.00
2018-10-06T01:29:25.239Z,0.00
2018-10-06T01:30:25.223Z,0.00
2018-10-06T01:31:25.212Z,0.00
2018-10-06T01:32:25.190Z,0.00
2018-10-06T01:33:25.175Z,0.00
2018-10-06T01:34:25.162Z,0.00
2018-10-06T01:35:25.145Z,0.00
2018-10-06T01:36:25.129Z,0.00
2018-10-06T01:37:25.113Z,0.00
2018-10-06T01:38:25.097Z,0.00
2018-10-06T01:39:25.081Z,0.00
2018-10-06T01:40:25.065Z,0.00
2018-10-06T01:41:25.050Z,0.00
2018-10-06T01:42:25.037Z,0.00
2018-10-06T01:43:25.017Z,0.00
2018-10-06T01:44:25.000Z,0.00
2018-10-06T01:45:24.986Z,0.00
2018-10-06T01:46:25.004Z,0.00
2018-10-06T01:47:24.955Z,0.00
2018-10-06T01:48:24.938Z,0.00
2018-10-06T01:49:24.929Z,0.00
2018-10-06T01:50:24.910Z,0.00
2018-10-06T01:51:24.891Z,0.00
2018-10-06T01:52:24.876Z,0.00
2018-10-06T01:53:24.860Z,0.00
2018-10-06T01:54:24.849Z,0.00
2018-10-06T01:55:24.828Z,0.00
2018-10-06T01:56:24.821Z,0.00
2018-10-06T01:57:24.797Z,0.00
2018-10-06T01:58:24.788Z,0.00
2018-10-06T01:59:24.765Z,0.00
2018-10-06T02:00:24.752Z,0.00
2018-10-06T02:01:24.734Z,0.00
2018-10-06T02:02:24.723Z,0.00
2018-10-06T02:03:24.709Z,0.00
2018-10-06T02:04:24.687Z,0.00
2018-10-06T02:05:24.679Z,0.00
2018-10-06T02:06:24.655Z,0.00
2018-10-06T02:07:24.640Z,0.00
2018-10-06T02:08:24.624Z,0.00
2018-10-06T02:09:24.609Z,0.00
2018-10-06T02:10:24.593Z,0.00
2018-10-06T02:11:24.577Z,0.00
2018-10-06T02:12:24.561Z,0.00
2018-10-06T02:13:24.545Z,0.00
2018-10-06T02:14:24.529Z,0.00
2018-10-06T02:15:24.517Z,0.00
2018-10-06T02:16:24.497Z,0.00
2018-10-06T02:17:24.484Z,0.00
2018-10-06T02:18:24.465Z,0.00
2018-10-06T02:19:24.453Z,0.00
2018-10-06T02:20:24.436Z,0.00
2018-10-06T02:21:24.417Z,0.00
2018-10-06T02:22:24.401Z,0.00
2018-10-06T02:23:24.398Z,0.00
2018-10-06T02:24:24.368Z,0.00
2018-10-06T02:25:24.356Z,0.00
2018-10-06T02:26:24.339Z,0.00
2018-10-06T02:27:24.324Z,0.00
2018-10-06T02:28:24.306Z,0.00
2018-10-06T02:29:24.292Z,0.00
2018-10-06T02:30:24.276Z,0.00
2018-10-06T02:31:24.259Z,0.00
2018-10-06T02:32:24.243Z,0.00
2018-10-06T02:33:24.228Z,0.00
2018-10-06T02:34:24.214Z,0.00
2018-10-06T02:35:24.196Z,0.00
2018-10-06T02:36:24.180Z,0.00
2018-10-06T02:37:24.168Z,0.00
2018-10-06T02:38:24.149Z,0.00
2018-10-06T02:39:24.131Z,0.00
2018-10-06T02:40:24.117Z,0.00
2018-10-06T02:41:24.098Z,0.00
2018-10-06T02:42:24.085Z,0.00
2018-10-06T02:43:24.067Z,0.00
2018-10-06T02:44:24.050Z,0.00
2018-10-06T02:45:24.036Z,0.00
2018-10-06T02:46:24.019Z,0.00
2018-10-06T02:47:24.014Z,0.00
2018-10-06T02:48:23.988Z,0.00
2018-10-06T02:49:23.975Z,0.00
2018-10-06T02:50:23.957Z,0.00
2018-10-06T02:51:23.939Z,0.00
2018-10-06T02:52:23.921Z,0.00
2018-10-06T02:53:23.907Z,0.00
2018-10-06T02:54:23.893Z,0.00
2018-10-06T02:55:23.875Z,0.00
2018-10-06T02:56:23.861Z,0.00
2018-10-06T02:57:23.841Z,0.00
2018-10-06T02:58:23.831Z,0.00
2018-10-06T02:59:23.810Z,0.00
2018-10-06T03:00:23.793Z,0.00
2018-10-06T03:01:23.782Z,0.00
2018-10-06T03:02:23.761Z,0.00
2018-10-06T03:03:23.793Z,0.00
2018-10-06T03:04:23.740Z,0.00
2018-10-06T03:05:23.713Z,0.00
2018-10-06T03:06:23.697Z,0.00
2018-10-06T03:07:23.679Z,0.00
2018-10-06T03:08:23.665Z,0.00
2018-10-06T03:09:23.650Z,0.00
2018-10-06T03:10:23.637Z,0.00
2018-10-06T03:11:23.616Z,0.00
2018-10-06T03:12:23.605Z,0.00
2018-10-06T03:13:23.584Z,0.00
2018-10-06T03:14:23.570Z,0.00
2018-10-06T03:15:23.551Z,0.00
2018-10-06T03:16:23.535Z,0.00
2018-10-06T03:17:23.522Z,0.00
2018-10-06T03:18:23.503Z,0.00
2018-10-06T03:19:23.496Z,0.00
2018-10-06T03:20:23.467Z,0.00
2018-10-06T03:21:23.452Z,0.00
2018-10-06T03:22:23.440Z,0.00
2018-10-06T03:23:23.422Z,0.00
2018-10-06T03:24:23.407Z,0.00
2018-10-06T03:25:23.389Z,0.00
2018-10-06T03:26:23.380Z,0.00
2018-10-06T03:27:23.372Z,0.00
2018-10-06T03:28:23.339Z,0.00
2018-10-06T03:29:23.324Z,0.00
2018-10-06T03:30:23.308Z,0.00
2018-10-06T03:31:23.294Z,0.00
2018-10-06T03:32:23.276Z,0.00
2018-10-06T03:33:23.258Z,0.00
2018-10-06T03:34:23.245Z,0.00
2018-10-06T03:35:23.228Z,0.00
2018-10-06T03:36:23.212Z,0.00
2018-10-06T03:37:23.208Z,0.00
2018-10-06T03:38:23.175Z,0.00
2018-10-06T03:39:23.166Z,0.00
2018-10-06T03:40:23.143Z,0.00
2018-10-06T03:41:23.130Z,0.00
2018-10-06T03:42:23.116Z,0.00
2018-10-06T03:43:23.096Z,0.00
2018-10-06T03:44:23.114Z,0.00
2018-10-06T03:45:23.059Z,0.00
2018-10-06T03:46:23.046Z,0.00
2018-10-06T03:47:23.030Z,0.00
2018-10-06T03:48:23.008Z,0.00
2018-10-06T03:49:23.001Z,0.00
2018-10-06T03:50:22.981Z,0.00
2018-10-06T03:51:22.961Z,0.00
2018-10-06T03:52:22.942Z,0.00
2018-10-06T03:53:22.931Z,0.00
2018-10-06T03:54:22.908Z,0.00
2018-10-06T03:55:22.906Z,0.00
2018-10-06T03:56:22.876Z,0.00
2018-10-06T03:57:22.864Z,0.00
2018-10-06T03:58:22.844Z,0.00
2018-10-06T03:59:22.844Z,0.00
2018-10-06T04:00:22.811Z,0.00
2018-10-06T04:01:22.794Z,0.00
2018-10-06T04:02:22.783Z,0.00
2018-10-06T04:03:22.764Z,0.00
2018-10-06T04:04:22.749Z,0.00
2018-10-06T04:05:22.729Z,0.00
2018-10-06T04:06:22.711Z,0.00
2018-10-06T04:07:22.697Z,0.00
2018-10-06T04:08:22.679Z,0.00
2018-10-06T04:09:22.660Z,0.00
2018-10-06T04:10:22.683Z,0.00
2018-10-06T04:11:22.627Z,0.00
2018-10-06T04:12:22.613Z,0.00
2018-10-06T04:13:22.595Z,0.00
2018-10-06T04:14:22.579Z,0.00
2018-10-06T04:15:22.563Z,0.00
2018-10-06T04:16:22.545Z,0.00
2018-10-06T04:17:22.527Z,0.00
2018-10-06T04:18:22.512Z,0.00
2018-10-06T04:19:22.496Z,0.00
2018-10-06T04:20:22.482Z,0.00
2018-10-06T04:21:22.461Z,0.00
2018-10-06T04:22:22.447Z,0.00
2018-10-06T04:23:22.427Z,0.00
2018-10-06T04:24:22.411Z,0.00
2018-10-06T04:25:22.400Z,0.00
2018-10-06T04:26:22.379Z,0.00
2018-10-06T04:27:22.366Z,0.00
2018-10-06T04:28:22.419Z,0.00
2018-10-06T04:29:22.332Z,0.00
2018-10-06T04:30:22.312Z,0.00
2018-10-06T04:31:22.296Z,0.00
2018-10-06T04:32:22.282Z,0.00
2018-10-06T04:33:22.262Z,0.00
2018-10-06T04:34:22.244Z,0.00
2018-10-06T04:35:22.229Z,0.00
2018-10-06T04:36:22.212Z,0.00
2018-10-06T04:37:22.213Z,0.00
2018-10-06T04:38:22.180Z,0.00
2018-10-06T04:39:22.162Z,0.00
2018-10-06T04:40:22.154Z,0.00
2018-10-06T04:41:22.131Z,0.00
2018-10-06T04:42:22.114Z,0.00
2018-10-06T04:43:22.096Z,0.00
2018-10-06T04:44:22.080Z,0.00
2018-10-06T04:45:22.063Z,0.00
2018-10-06T04:46:22.052Z,0.00
2018-10-06T04:47:22.031Z,0.00
2018-10-06T04:48:22.020Z,0.00
2018-10-06T04:49:21.994Z,0.00
2018-10-06T04:50:21.978Z,0.00
2018-10-06T04:51:22.029Z,0.00
2018-10-06T04:52:21.947Z,0.00
2018-10-06T04:53:21.931Z,0.00
2018-10-06T04:54:21.913Z,0.00
2018-10-06T04:55:21.893Z,0.00
2018-10-06T04:56:21.876Z,0.00
2018-10-06T04:57:21.861Z,0.00
2018-10-06T04:58:21.843Z,0.00
2018-10-06T04:59:21.828Z,0.00
2018-10-06T05:00:21.813Z,0.00
2018-10-06T05:01:21.801Z,0.00
2018-10-06T05:02:21.777Z,0.00
2018-10-06T05:03:21.859Z,0.00
2018-10-06T05:04:21.745Z,0.00
2018-10-06T05:05:21.727Z,0.00
2018-10-06T05:06:21.712Z,0.00
2018-10-06T05:07:21.693Z,0.00
2018-10-06T05:08:21.674Z,0.00
2018-10-06T05:09:21.659Z,0.00
2018-10-06T05:10:21.650Z,0.00
2018-10-06T05:11:21.627Z,0.00
2018-10-06T05:12:21.629Z,0.00
2018-10-06T05:13:21.595Z,0.00
2018-10-06T05:14:21.575Z,0.00
2018-10-06T05:15:21.558Z,0.00
2018-10-06T05:16:21.540Z,0.00
2018-10-06T05:17:21.525Z,0.00
2018-10-06T05:18:21.511Z,0.00
2018-10-06T05:19:21.491Z,0.00
2018-10-06T05:20:21.473Z,0.00
2018-10-06T05:21:21.459Z,0.00
2018-10-06T05:22:21.444Z,0.00
2018-10-06T05:23:21.475Z,0.00
2018-10-06T05:24:21.406Z,0.00
2018-10-06T05:25:21.389Z,0.00
2018-10-06T05:26:21.372Z,0.00
2018-10-06T05:27:21.360Z,0.00
2018-10-06T05:28:21.340Z,0.00
2018-10-06T05:29:21.321Z,0.00
2018-10-06T05:30:21.310Z,0.00
2018-10-06T05:31:21.290Z,0.00
2018-10-06T05:32:21.272Z,0.00
2018-10-06T05:33:21.263Z,0.00
2018-10-06T05:34:21.236Z,0.00
2018-10-06T05:35:21.224Z,0.00
2018-10-06T05:36:21.203Z,0.00
2018-10-06T05:37:21.186Z,0.00
2018-10-06T05:38:21.169Z,0.00
2018-10-06T05:39:21.157Z,5.63
2018-10-06T05:40:21.140Z,5.63
2018-10-06T05:41:21.117Z,5.63
2018-10-06T05:42:21.100Z,5.63
2018-10-06T05:43:21.084Z,5.63
2018-10-06T05:44:21.069Z,5.63
2018-10-06T05:45:21.059Z,5.63
2018-10-06T05:46:21.094Z,5.63
2018-10-06T05:47:21.028Z,11.25
2018-10-06T05:48:21.002Z,11.25
2018-10-06T05:49:20.984Z,11.25
2018-10-06T05:50:20.970Z,11.25
2018-10-06T05:51:20.951Z,11.25
2018-10-06T05:52:20.936Z,11.25
2018-10-06T05:53:20.917Z,16.88
2018-10-06T05:54:20.901Z,16.88
2018-10-06T05:55:20.883Z,16.88
2018-10-06T05:56:20.872Z,16.88
2018-10-06T05:57:20.851Z,16.88
2018-10-06T05:58:20.830Z,16.88
2018-10-06T05:59:20.817Z,22.50
2018-10-06T06:00:20.802Z,22.50
2018-10-06T06:01:20.785Z,22.50
2018-10-06T06:02:20.767Z,22.50
2018-10-06T06:03:20.753Z,22.50
2018-10-06T06:04:20.731Z,28.13
2018-10-06T06:05:20.713Z,28.13
2018-10-06T06:06:20.699Z,28.13
2018-10-06T06:07:20.682Z,33.75
2018-10-06T06:08:20.663Z,33.75
2018-10-06T06:09:20.745Z,33.75
2018-10-06T06:10:20.628Z,33.75
2018-10-06T06:11:20.612Z,33.75
2018-10-06T06:12:20.594Z,39.38
2018-10-06T06:13:20.579Z,39.38
2018-10-06T06:14:20.561Z,39.38
2018-10-06T06:15:20.545Z,39.38
2018-10-06T06:16:20.529Z,45.00
2018-10-06T06:17:20.513Z,45.00
2018-10-06T06:18:20.491Z,50.63
2018-10-06T06:19:20.477Z,50.63
2018-10-06T06:20:20.460Z,56.25
2018-10-06T06:21:20.444Z,56.25
2018-10-06T06:22:20.427Z,61.88
2018-10-06T06:23:20.410Z,67.50
2018-10-06T06:24:20.394Z,67.50
2018-10-06T06:25:20.383Z,73.13
2018-10-06T06:26:20.374Z,78.75
2018-10-06T06:27:20.345Z,84.38
2018-10-06T06:28:20.330Z,118.13
2018-10-06T06:29:20.317Z,258.75
2018-10-06T06:30:20.304Z,343.13
2018-10-06T06:31:20.447Z,573.75
2018-10-06T06:32:20.320Z,579.38
2018-10-06T06:33:20.257Z,500.63
2018-10-06T06:34:20.243Z,393.75
2018-10-06T06:35:20.232Z,495.00
2018-10-06T06:36:20.216Z,562.50
2018-10-06T06:37:20.198Z,641.25
2018-10-06T06:38:20.254Z,641.25
2018-10-06T06:39:20.171Z,568.13
2018-10-06T06:40:20.162Z,613.13
2018-10-06T06:41:20.146Z,658.13
2018-10-06T06:42:20.134Z,720.00
2018-10-06T06:43:20.122Z,675.00
2018-10-06T06:44:20.244Z,708.75
2018-10-06T06:45:20.100Z,759.38
2018-10-06T06:46:20.090Z,703.13
2018-10-06T06:47:20.085Z,776.25
2018-10-06T06:48:20.063Z,787.50
2018-10-06T06:49:20.054Z,725.63
2018-10-06T06:50:20.040Z,720.00
2018-10-06T06:51:20.033Z,646.88
2018-10-06T06:52:20.024Z,579.38
2018-10-06T06:53:20.012Z,596.25
2018-10-06T06:54:20.000Z,607.50
2018-10-06T06:55:19.995Z,686.25
2018-10-06T06:56:19.992Z,810.00
2018-10-06T06:57:19.971Z,871.88
2018-10-06T06:58:19.963Z,877.50
2018-10-06T06:59:19.955Z,933.75
2018-10-06T07:00:19.948Z,821.25
2018-10-06T07:01:19.936Z,843.75
2018-10-06T07:02:19.928Z,928.13
2018-10-06T07:03:19.922Z,894.38
2018-10-06T07:04:19.910Z,877.50
2018-10-06T07:05:19.904Z,905.63
2018-10-06T07:06:19.897Z,950.63
2018-10-06T07:07:19.893Z,900.00
2018-10-06T07:08:19.888Z,911.25
2018-10-06T07:09:19.873Z,950.63
2018-10-06T07:10:19.867Z,956.25
2018-10-06T07:11:19.867Z,1001.25
2018-10-06T07:12:19.873Z,990.00
2018-10-06T07:13:19.848Z,1040.63
2018-10-06T07:14:19.846Z,1091.25
2018-10-06T07:15:19.837Z,1102.50
2018-10-06T07:16:19.831Z,1085.63
2018-10-06T07:17:19.827Z,1096.88
2018-10-06T07:18:19.825Z,1113.75
2018-10-06T07:19:19.821Z,1164.38
2018-10-06T07:20:19.813Z,1198.13
2018-10-06T07:21:19.811Z,1226.25
2018-10-06T07:22:19.804Z,1203.75
2018-10-06T07:23:19.801Z,1198.13
2018-10-06T07:24:19.803Z,1231.88
2018-10-06T07:25:19.794Z,1288.13
2018-10-06T07:26:19.800Z,1276.88
2018-10-06T07:27:19.788Z,1260.00
2018-10-06T07:28:19.809Z,1293.75
2018-10-06T07:29:19.789Z,1293.75
2018-10-06T07:30:19.781Z,1271.25
2018-10-06T07:31:19.779Z,1361.25
2018-10-06T07:32:19.779Z,1462.50
2018-10-06T07:33:19.776Z,1327.50
2018-10-06T07:34:19.775Z,1293.75
2018-10-06T07:35:19.771Z,1260.00
2018-10-06T07:36:19.780Z,1265.63
2018-10-06T07:37:19.771Z,1350.00
2018-10-06T07:38:19.771Z,1355.63
2018-10-06T07:39:19.770Z,1350.00
2018-10-06T07:40:19.770Z,1361.25
2018-10-06T07:41:19.776Z,1361.25
2018-10-06T07:42:19.772Z,1350.00
2018-10-06T07:43:19.769Z,1293.75
2018-10-06T07:44:19.775Z,1321.88
2018-10-06T07:45:19.770Z,1293.75
2018-10-06T07:46:19.771Z,1310.63
2018-10-06T07:47:19.772Z,1383.75
2018-10-06T07:48:19.776Z,1355.63
2018-10-06T07:49:19.779Z,1372.50
2018-10-06T07:50:19.779Z,1383.75
2018-10-06T07:51:19.775Z,1395.00
2018-10-06T07:52:19.775Z,1293.75
2018-10-06T07:53:19.780Z,1293.75
2018-10-06T07:54:19.789Z,1355.63
2018-10-06T07:55:19.783Z,1383.75
2018-10-06T07:56:19.782Z,1293.75
2018-10-06T07:57:19.794Z,1389.38
2018-10-06T07:58:19.821Z,1451.25
2018-10-06T07:59:19.857Z,1344.38
2018-10-06T08:00:19.802Z,1355.63
2018-10-06T08:01:19.829Z,1406.25
2018-10-06T08:02:19.797Z,1445.63
2018-10-06T08:03:19.800Z,1378.13
2018-10-06T08:04:19.805Z,1366.88
2018-10-06T08:05:19.810Z,1395.00
2018-10-06T08:06:19.870Z,1378.13
2018-10-06T08:07:19.815Z,1395.00
2018-10-06T08:08:19.820Z,1434.38
2018-10-06T08:09:19.827Z,1355.63
2018-10-06T08:10:19.824Z,1338.75
2018-10-06T08:11:19.825Z,1389.38
2018-10-06T08:12:19.830Z,1417.50
2018-10-06T08:13:19.831Z,1445.63
2018-10-06T08:14:19.835Z,1400.63
2018-10-06T08:15:19.845Z,1361.25
2018-10-06T08:16:19.853Z,1327.50
2018-10-06T08:17:19.854Z,1338.75
2018-10-06T08:18:19.849Z,1361.25
2018-10-06T08:19:19.854Z,1316.25
2018-10-06T08:20:19.856Z,1372.50
2018-10-06T08:21:19.860Z,1344.38
2018-10-06T08:22:19.865Z,1361.25
2018-10-06T08:23:19.869Z,1411.88
2018-10-06T08:24:19.883Z,1417.50
2018-10-06T08:25:19.873Z,1440.00
2018-10-06T08:26:19.877Z,1344.38
2018-10-06T08:27:19.885Z,1293.75
2018-10-06T08:28:19.889Z,1440.00
2018-10-06T08:29:19.900Z,1563.75
2018-10-06T08:30:19.896Z,1524.38
2018-10-06T08:31:19.899Z,1378.13
2018-10-06T08:32:19.901Z,1496.25
2018-10-06T08:33:19.904Z,1546.88
2018-10-06T08:34:19.909Z,1456.88
2018-10-06T08:35:19.911Z,1473.75
2018-10-06T08:36:19.913Z,1490.63
2018-10-06T08:37:19.918Z,1507.50
2018-10-06T08:38:19.922Z,1389.38
2018-10-06T08:39:19.929Z,1366.88
2018-10-06T08:40:19.930Z,1507.50
2018-10-06T08:41:19.933Z,1485.00
2018-10-06T08:42:19.934Z,1434.38
2018-10-06T08:43:19.941Z,1456.88
2018-10-06T08:44:19.943Z,1513.13
2018-10-06T08:45:19.946Z,1591.88
2018-10-06T08:46:19.961Z,1625.63
2018-10-06T08:47:19.952Z,1496.25
2018-10-06T08:48:19.964Z,1215.00
2018-10-06T08:49:19.959Z,1355.63
2018-10-06T08:50:19.960Z,1496.25
2018-10-06T08:51:19.974Z,1321.88
2018-10-06T08:52:19.968Z,1321.88
2018-10-06T08:53:19.975Z,1400.63
2018-10-06T08:54:19.973Z,1350.00
2018-10-06T08:55:19.976Z,1389.38
2018-10-06T08:56:20.137Z,1288.13
2018-10-06T08:57:19.990Z,1282.50
2018-10-06T08:58:19.988Z,1299.38
2018-10-06T08:59:19.987Z,1215.00
2018-10-06T09:00:20.008Z,1091.25
2018-10-06T09:01:20.000Z,1355.63
2018-10-06T09:02:19.994Z,1350.00
2018-10-06T09:03:20.000Z,1215.00
2018-10-06T09:04:20.064Z,1350.00
2018-10-06T09:05:20.001Z,1164.38
2018-10-06T09:06:20.004Z,1305.00
2018-10-06T09:07:20.005Z,1276.88
2018-10-06T09:08:20.006Z,1310.63
2018-10-06T09:09:20.014Z,1293.75
2018-10-06T09:10:20.022Z,1321.88
2018-10-06T09:11:20.009Z,1276.88
2018-10-06T09:12:20.011Z,1338.75
2018-10-06T09:13:20.012Z,1282.50
2018-10-06T09:14:20.012Z,1243.13
2018-10-06T09:15:20.022Z,1248.75
2018-10-06T09:16:20.015Z,1220.63
2018-10-06T09:17:20.024Z,1265.63
2018-10-06T09:18:20.020Z,1265.63
2018-10-06T09:19:20.040Z,1282.50
2018-10-06T09:20:20.028Z,1260.00
2018-10-06T09:21:20.017Z,1299.38
2018-10-06T09:22:20.022Z,1310.63
2018-10-06T09:23:20.024Z,1271.25
2018-10-06T09:24:20.021Z,1209.38
2018-10-06T09:25:20.030Z,1175.63
2018-10-06T09:26:20.025Z,1181.25
2018-10-06T09:27:20.021Z,1141.88
2018-10-06T09:28:20.119Z,1068.75
2018-10-06T09:29:20.035Z,1085.63
2018-10-06T09:30:20.023Z,1035.00
2018-10-06T09:31:20.024Z,691.88
2018-10-06T09:32:20.023Z,540.00
2018-10-06T09:33:20.024Z,528.75
2018-10-06T09:34:20.027Z,523.13
2018-10-06T09:35:20.027Z,528.75
2018-10-06T09:36:20.022Z,551.25
2018-10-06T09:37:20.020Z,590.63
2018-10-06T09:38:20.032Z,630.00
2018-10-06T09:39:20.044Z,675.00
2018-10-06T09:40:20.018Z,720.00
2018-10-06T09:41:20.020Z,815.63
2018-10-06T09:42:20.273Z,911.25
2018-10-06T09:43:20.019Z,916.88
2018-10-06T09:44:20.015Z,978.75
2018-10-06T09:45:20.013Z,1012.50
2018-10-06T09:46:20.026Z,1035.00
2018-10-06T09:47:20.011Z,1006.88
2018-10-06T09:48:20.008Z,1051.88
2018-10-06T09:49:20.007Z,1018.13
2018-10-06T09:50:20.010Z,922.50
2018-10-06T09:51:20.015Z,916.88
2018-10-06T09:52:19.999Z,939.38
2018-10-06T09:53:19.996Z,978.75
2018-10-06T09:54:19.995Z,961.88
2018-10-06T09:55:20.003Z,922.50
2018-10-06T09:56:19.991Z,916.88
2018-10-06T09:57:20.312Z,928.13
2018-10-06T09:58:19.987Z,950.63
2018-10-06T09:59:20.008Z,928.13
2018-10-06T10:00:19.985Z,916.88
2018-10-06T10:01:19.974Z,888.75
2018-10-06T10:02:19.972Z,849.38
2018-10-06T10:03:19.971Z,871.88
2018-10-06T10:04:19.967Z,877.50
2018-10-06T10:05:20.029Z,877.50
2018-10-06T10:06:19.956Z,860.63
2018-10-06T10:07:19.958Z,849.38
2018-10-06T10:08:19.953Z,849.38
2018-10-06T10:09:19.980Z,826.88
2018-10-06T10:10:19.949Z,804.38
2018-10-06T10:11:19.942Z,680.63
2018-10-06T10:12:19.936Z,495.00
2018-10-06T10:13:19.933Z,337.50
2018-10-06T10:14:19.938Z,281.25
2018-10-06T10:15:19.966Z,270.00
2018-10-06T10:16:19.927Z,270.00
2018-10-06T10:17:20.020Z,264.38
2018-10-06T10:18:20.155Z,264.38
2018-10-06T10:19:19.918Z,253.13
2018-10-06T10:20:19.906Z,253.13
2018-10-06T10:21:19.900Z,253.13
2018-10-06T10:22:19.996Z,253.13
2018-10-06T10:23:19.925Z,247.50
2018-10-06T10:24:19.891Z,258.75
2018-10-06T10:25:19.879Z,258.75
2018-10-06T10:26:19.885Z,230.63
2018-10-06T10:27:19.873Z,253.13
2018-10-06T10:28:19.897Z,247.50
2018-10-06T10:29:19.856Z,253.13
2018-10-06T10:30:19.862Z,253.13
2018-10-06T10:31:19.847Z,247.50
2018-10-06T10:32:19.844Z,247.50
2018-10-06T10:33:19.847Z,247.50
2018-10-06T10:34:20.201Z,241.88
2018-10-06T10:35:19.828Z,241.88
2018-10-06T10:36:19.827Z,241.88
2018-10-06T10:37:19.833Z,241.88
2018-10-06T10:38:19.813Z,241.88
2018-10-06T10:39:19.979Z,241.88
2018-10-06T10:40:19.799Z,230.63
2018-10-06T10:41:19.801Z,230.63
2018-10-06T10:42:19.798Z,236.25
2018-10-06T10:43:19.789Z,241.88
2018-10-06T10:44:19.809Z,236.25
2018-10-06T10:45:19.780Z,230.63
2018-10-06T10:46:19.774Z,230.63
2018-10-06T10:47:19.768Z,230.63
2018-10-06T10:48:19.875Z,230.63
2018-10-06T10:49:19.770Z,236.25
2018-10-06T10:50:19.751Z,230.63
2018-10-06T10:51:19.794Z,230.63
2018-10-06T10:52:19.958Z,236.25
2018-10-06T10:53:19.735Z,241.88
2018-10-06T10:54:19.777Z,230.63
2018-10-06T10:55:20.059Z,219.38
2018-10-06T10:56:19.723Z,230.63
2018-10-06T10:57:19.725Z,241.88
2018-10-06T10:58:19.709Z,236.25
2018-10-06T10:59:19.759Z,230.63
2018-10-06T11:00:19.751Z,236.25
2018-10-06T11:01:19.722Z,230.63
2018-10-06T11:02:19.685Z,230.63
2018-10-06T11:03:19.682Z,230.63
2018-10-06T11:04:19.683Z,236.25
2018-10-06T11:05:19.880Z,230.63
2018-10-06T11:06:19.672Z,225.00
2018-10-06T11:07:19.659Z,225.00
2018-10-06T11:08:19.653Z,225.00
2018-10-06T11:09:19.649Z,236.25
2018-10-06T11:10:19.643Z,236.25
2018-10-06T11:11:19.719Z,230.63
2018-10-06T11:12:19.640Z,225.00
2018-10-06T11:13:19.633Z,225.00
2018-10-06T11:14:19.620Z,213.75
2018-10-06T11:15:19.619Z,219.38
2018-10-06T11:16:19.610Z,219.38
2018-10-06T11:17:19.640Z,213.75
2018-10-06T11:18:19.601Z,225.00
2018-10-06T11:19:19.596Z,213.75
2018-10-06T11:20:19.599Z,225.00
2018-10-06T11:21:19.584Z,219.38
2018-10-06T11:22:19.580Z,230.63
2018-10-06T11:23:19.571Z,230.63
2018-10-06T11:24:19.566Z,230.63
2018-10-06T11:25:19.559Z,230.63
2018-10-06T11:26:19.568Z,230.63
2018-10-06T11:27:19.553Z,236.25
2018-10-06T11:28:19.556Z,230.63
2018-10-06T11:29:19.541Z,236.25
2018-10-06T11:30:19.539Z,230.63
2018-10-06T11:31:19.530Z,219.38
2018-10-06T11:32:19.524Z,219.38
2018-10-06T11:33:19.532Z,219.38
2018-10-06T11:34:19.518Z,230.63
2018-10-06T11:35:19.509Z,219.38
2018-10-06T11:36:19.510Z,225.00
2018-10-06T11:37:19.596Z,230.63
2018-10-06T11:38:19.536Z,230.63
2018-10-06T11:39:19.489Z,230.63
2018-10-06T11:40:19.492Z,225.00
2018-10-06T11:41:19.478Z,225.00
2018-10-06T11:42:19.478Z,219.38
2018-10-06T11:43:19.470Z,230.63
2018-10-06T11:44:19.465Z,225.00
2018-10-06T11:45:19.456Z,230.63
2018-10-06T11:46:19.453Z,213.75
2018-10-06T11:47:19.447Z,230.63
2018-10-06T11:48:19.446Z,213.75
2018-10-06T11:49:19.435Z,230.63
2018-10-06T11:50:19.464Z,230.63
2018-10-06T11:51:19.428Z,236.25
2018-10-06T11:52:19.423Z,180.00
2018-10-06T11:53:19.424Z,196.88
2018-10-06T11:54:19.726Z,213.75
2018-10-06T11:55:19.406Z,191.25
2018-10-06T11:56:19.399Z,213.75
2018-10-06T11:57:19.395Z,213.75
2018-10-06T11:58:19.597Z,174.38
2018-10-06T11:59:19.385Z,196.88
2018-10-06T12:00:19.585Z,208.13
2018-10-06T12:01:19.374Z,202.50
2018-10-06T12:02:19.384Z,208.13
2018-10-06T12:03:19.403Z,191.25
2018-10-06T12:04:19.359Z,202.50
2018-10-06T12:05:19.672Z,208.13
2018-10-06T12:06:19.354Z,219.38
2018-10-06T12:07:19.345Z,202.50
2018-10-06T12:08:19.341Z,208.13
2018-10-06T12:09:19.332Z,225.00
2018-10-06T12:10:19.326Z,225.00
2018-10-06T12:11:19.325Z,225.00
2018-10-06T12:12:19.317Z,219.38
2018-10-06T12:13:19.322Z,213.75
2018-10-06T12:14:19.306Z,213.75
2018-10-06T12:15:19.322Z,213.75
2018-10-06T12:16:19.294Z,219.38
2018-10-06T12:17:19.289Z,196.88
2018-10-06T12:18:19.283Z,219.38
2018-10-06T12:19:19.279Z,213.75
2018-10-06T12:20:19.276Z,213.75
2018-10-06T12:21:19.268Z,208.13
2018-10-06T12:22:19.262Z,208.13
2018-10-06T12:23:19.265Z,202.50
2018-10-06T12:24:19.249Z,191.25
2018-10-06T12:25:19.252Z,196.88
2018-10-06T12:26:19.239Z,208.13
2018-10-06T12:27:19.235Z,208.13
2018-10-06T12:28:19.230Z,208.13
2018-10-06T12:29:19.225Z,213.75
2018-10-06T12:30:19.218Z,213.75
2018-10-06T12:31:19.213Z,213.75
2018-10-06T12:32:19.210Z,213.75
2018-10-06T12:33:19.203Z,202.50
2018-10-06T12:34:19.198Z,202.50
2018-10-06T12:35:19.263Z,202.50
2018-10-06T12:36:19.187Z,196.88
2018-10-06T12:37:19.180Z,202.50
2018-10-06T12:38:19.173Z,202.50
2018-10-06T12:39:19.169Z,202.50
2018-10-06T12:40:19.168Z,202.50
2018-10-06T12:41:19.162Z,202.50
2018-10-06T12:42:19.253Z,202.50
2018-10-06T12:43:19.152Z,213.75
2018-10-06T12:44:19.142Z,208.13
2018-10-06T12:45:19.138Z,208.13
2018-10-06T12:46:19.131Z,208.13